createdAt,value
2019-05-20T00:00:17.073Z,13.14
2019-05-20T00:02:46.499Z,13.24
2019-05-20T00:05:15.903Z,13.33
2019-05-20T00:07:46.415Z,13.41
2019-05-20T00:10:15.951Z,13.48
2019-05-20T00:12:45.375Z,13.53
2019-05-20T00:15:14.727Z,13.58
2019-05-20T00:17:44.142Z,13.64
2019-05-20T00:20:13.693Z,13.68
2019-05-20T00:22:43.086Z,13.72
2019-05-20T00:25:12.746Z,13.76
2019-05-20T00:27:42.148Z,13.80
2019-05-20T00:30:12.051Z,13.83
2019-05-20T00:32:42.432Z,13.85
2019-05-20T00:35:12.098Z,13.87
2019-05-20T00:37:41.467Z,13.92
2019-05-20T00:40:11.467Z,13.94
2019-05-20T00:42:41.035Z,13.92
2019-05-20T00:45:11.154Z,13.91
2019-05-20T00:47:40.519Z,13.90
2019-05-20T00:50:10.630Z,13.92
2019-05-20T00:52:40.024Z,13.92
2019-05-20T00:55:18.216Z,13.92
2019-05-20T00:57:47.605Z,13.94
2019-05-20T01:00:17.129Z,13.94
2019-05-20T01:02:56.593Z,13.93
2019-05-20T01:05:17.942Z,13.94
2019-05-20T01:07:47.318Z,13.95
2019-05-20T01:10:17.720Z,13.96
2019-05-20T01:12:47.116Z,13.98
2019-05-20T01:15:16.936Z,13.98
2019-05-20T01:17:46.294Z,13.97
2019-05-20T01:20:15.937Z,13.99
2019-05-20T01:22:45.677Z,13.99
2019-05-20T01:25:15.038Z,14.02
2019-05-20T01:27:44.397Z,14.01
2019-05-20T01:30:14.613Z,14.00
2019-05-20T01:32:44.001Z,13.97
2019-05-20T01:35:15.170Z,13.96
2019-05-20T01:37:44.577Z,13.98
2019-05-20T01:40:15.213Z,14.00
2019-05-20T01:42:44.569Z,14.02
2019-05-20T01:45:14.916Z,14.01
2019-05-20T01:47:44.465Z,13.99
2019-05-20T01:50:14.902Z,14.00
2019-05-20T01:52:44.289Z,14.00
2019-05-20T01:55:13.737Z,14.01
2019-05-20T01:57:43.082Z,14.02
2019-05-20T02:00:12.804Z,14.08
2019-05-20T02:02:42.226Z,14.11
2019-05-20T02:05:11.653Z,14.13
2019-05-20T02:07:41.024Z,14.13
2019-05-20T02:10:12.021Z,14.14
2019-05-20T02:12:41.371Z,14.15
2019-05-20T02:15:28.961Z,14.18
2019-05-20T02:17:58.296Z,14.20
2019-05-20T02:20:27.676Z,14.23
2019-05-20T02:23:15.736Z,14.25
2019-05-20T02:25:47.110Z,14.27
2019-05-20T02:28:16.581Z,14.30
2019-05-20T02:30:45.960Z,14.32
2019-05-20T02:33:15.345Z,14.33
2019-05-20T02:35:44.825Z,14.33
2019-05-20T02:38:14.170Z,14.34
2019-05-20T02:40:43.599Z,14.33
2019-05-20T02:43:13.323Z,14.33
2019-05-20T02:45:42.700Z,14.35
2019-05-20T02:48:12.256Z,14.35
2019-05-20T02:50:41.610Z,14.35
2019-05-20T02:53:11.002Z,14.31
2019-05-20T02:55:40.376Z,14.31
2019-05-20T02:58:09.743Z,14.31
2019-05-20T03:00:39.084Z,14.31
2019-05-20T03:03:09.560Z,14.33
2019-05-20T03:05:38.936Z,14.31
2019-05-20T03:08:08.330Z,14.32
2019-05-20T03:10:37.712Z,14.31
2019-05-20T03:13:07.094Z,14.30
2019-05-20T03:15:36.483Z,14.32
2019-05-20T03:18:05.848Z,14.32
2019-05-20T03:20:35.214Z,14.32
2019-05-20T03:23:04.673Z,14.30
2019-05-20T03:25:34.077Z,14.29
2019-05-20T03:28:03.453Z,14.28
2019-05-20T03:30:32.854Z,14.28
2019-05-20T03:33:02.241Z,14.28
2019-05-20T03:35:31.621Z,14.29
2019-05-20T03:38:00.988Z,14.30
2019-05-20T03:40:30.362Z,14.29
2019-05-20T03:42:59.748Z,14.28
2019-05-20T03:45:29.154Z,14.29
2019-05-20T03:47:58.543Z,14.31
2019-05-20T03:50:27.900Z,14.32
2019-05-20T03:52:57.277Z,14.30
2019-05-20T03:55:30.886Z,14.31
2019-05-20T03:58:00.248Z,14.31
2019-05-20T04:00:44.389Z,14.30
2019-05-20T04:03:14.370Z,14.30
2019-05-20T04:05:45.285Z,14.32
2019-05-20T04:08:15.699Z,14.32
2019-05-20T04:10:45.078Z,14.33
2019-05-20T04:13:14.478Z,14.35
2019-05-20T04:15:44.901Z,14.36
2019-05-20T04:18:14.353Z,14.37
2019-05-20T04:20:44.995Z,14.38
2019-05-20T04:23:14.373Z,14.38
2019-05-20T04:25:43.718Z,14.38
2019-05-20T04:28:13.111Z,14.38
2019-05-20T04:30:42.484Z,14.38
2019-05-20T04:33:11.894Z,14.40
2019-05-20T04:35:41.258Z,14.42
2019-05-20T04:38:10.656Z,14.44
2019-05-20T04:40:40.665Z,14.49
2019-05-20T04:43:10.043Z,14.51
2019-05-20T04:45:39.448Z,14.57
2019-05-20T04:48:08.820Z,14.60
2019-05-20T04:50:38.179Z,14.64
2019-05-20T04:53:07.553Z,14.67
2019-05-20T04:55:36.932Z,14.70
2019-05-20T04:58:06.330Z,14.73
2019-05-20T05:00:50.514Z,14.75
2019-05-20T05:03:20.119Z,14.82
2019-05-20T05:05:50.404Z,14.88
2019-05-20T05:08:20.817Z,14.89
2019-05-20T05:10:50.536Z,14.94
2019-05-20T05:13:20.446Z,14.98
2019-05-20T05:15:49.979Z,15.00
2019-05-20T05:18:19.506Z,15.02
2019-05-20T05:20:48.940Z,15.04
2019-05-20T05:23:18.670Z,15.02
2019-05-20T05:25:48.110Z,14.98
2019-05-20T05:28:19.403Z,14.99
2019-05-20T05:30:50.092Z,15.01
2019-05-20T05:33:19.453Z,15.02
2019-05-20T05:35:53.422Z,15.06
2019-05-20T05:38:19.966Z,15.09
2019-05-20T05:40:49.349Z,15.16
2019-05-20T05:43:18.728Z,15.23
2019-05-20T05:45:48.147Z,15.32
2019-05-20T05:48:17.456Z,15.38
2019-05-20T05:50:46.838Z,15.40
2019-05-20T05:53:16.237Z,15.41
2019-05-20T05:55:45.615Z,15.43
2019-05-20T05:58:14.999Z,15.42
2019-05-20T06:00:44.388Z,15.46
2019-05-20T06:03:13.775Z,15.47
2019-05-20T06:05:43.149Z,15.52
2019-05-20T06:08:12.513Z,15.54
2019-05-20T06:10:41.901Z,15.56
2019-05-20T06:13:11.247Z,15.55
2019-05-20T06:15:40.629Z,15.56
2019-05-20T06:18:10.010Z,15.60
2019-05-20T06:20:39.344Z,15.63
2019-05-20T06:23:08.710Z,15.64
2019-05-20T06:25:38.170Z,15.66
2019-05-20T06:28:07.512Z,15.68
2019-05-20T06:30:39.853Z,15.67
2019-05-20T06:33:09.227Z,15.68
2019-05-20T06:35:38.776Z,15.72
2019-05-20T06:38:09.786Z,15.73
2019-05-20T06:40:39.223Z,15.72
2019-05-20T06:43:08.609Z,15.77
2019-05-20T06:45:38.018Z,15.82
2019-05-20T06:48:07.434Z,15.95
2019-05-20T06:50:36.813Z,16.05
2019-05-20T06:53:06.180Z,16.15
2019-05-20T06:55:35.563Z,16.25
2019-05-20T06:58:05.159Z,16.32
2019-05-20T07:00:39.079Z,16.35
2019-05-20T07:03:08.590Z,16.39
2019-05-20T07:05:37.966Z,16.36
2019-05-20T07:08:07.333Z,16.34
2019-05-20T07:10:36.686Z,16.31
2019-05-20T07:13:06.077Z,16.33
2019-05-20T07:15:35.451Z,16.33
2019-05-20T07:18:04.977Z,16.33
2019-05-20T07:20:34.358Z,16.30
2019-05-20T07:23:03.769Z,16.24
2019-05-20T07:25:33.179Z,16.24
2019-05-20T07:28:02.529Z,16.25
2019-05-20T07:30:32.171Z,16.23
2019-05-20T07:33:01.548Z,16.21
2019-05-20T07:35:31.464Z,16.19
2019-05-20T07:38:01.019Z,16.17
2019-05-20T07:40:31.979Z,16.16
2019-05-20T07:43:02.054Z,16.19
2019-05-20T07:45:34.781Z,16.20
2019-05-20T07:48:05.421Z,16.18
2019-05-20T07:50:37.617Z,16.17
2019-05-20T07:53:08.718Z,16.12
2019-05-20T07:55:41.154Z,16.12
2019-05-20T07:58:12.763Z,16.10
2019-05-20T08:00:42.593Z,16.09
2019-05-20T08:03:12.019Z,16.10
2019-05-20T08:05:41.551Z,16.08
2019-05-20T08:08:10.930Z,16.08
2019-05-20T08:10:40.305Z,15.99
2019-05-20T08:13:09.836Z,16.01
2019-05-20T08:15:39.222Z,16.04
2019-05-20T08:18:08.586Z,16.06
2019-05-20T08:20:37.986Z,16.10
2019-05-20T08:23:07.355Z,16.15
2019-05-20T08:25:36.747Z,16.17
2019-05-20T08:28:06.200Z,16.23
2019-05-20T08:30:37.610Z,16.27
2019-05-20T08:33:07.713Z,16.28
2019-05-20T08:35:37.107Z,16.29
2019-05-20T08:38:06.629Z,16.28
2019-05-20T08:40:36.007Z,16.24
2019-05-20T08:43:05.395Z,16.18
2019-05-20T08:45:34.743Z,16.17
2019-05-20T08:48:04.569Z,16.21
2019-05-20T08:50:33.926Z,16.21
2019-05-20T08:53:03.320Z,16.23
2019-05-20T08:55:32.702Z,16.23
2019-05-20T08:58:02.126Z,16.26
2019-05-20T09:00:31.453Z,16.25
2019-05-20T09:03:00.823Z,16.27
2019-05-20T09:05:30.282Z,16.28
2019-05-20T09:08:03.515Z,16.27
2019-05-20T09:10:30.733Z,16.27
2019-05-20T09:13:00.115Z,16.31
2019-05-20T09:15:29.631Z,16.40
2019-05-20T09:17:59.060Z,16.50
2019-05-20T09:20:28.399Z,16.57
2019-05-20T09:22:57.788Z,16.64
2019-05-20T09:25:31.643Z,16.72
2019-05-20T09:28:01.542Z,16.73
2019-05-20T09:30:30.925Z,16.74
2019-05-20T09:33:00.301Z,16.77
2019-05-20T09:35:29.903Z,16.78
2019-05-20T09:37:59.337Z,16.85
2019-05-20T09:40:34.548Z,16.96
2019-05-20T09:43:03.990Z,17.10
2019-05-20T09:45:33.364Z,17.24
2019-05-20T09:48:03.092Z,17.35
2019-05-20T09:50:32.565Z,17.50
2019-05-20T09:53:06.590Z,17.61
2019-05-20T09:55:33.304Z,17.75
2019-05-20T09:58:03.381Z,17.77
2019-05-20T10:00:33.217Z,17.76
2019-05-20T10:03:02.973Z,17.80
2019-05-20T10:05:32.633Z,17.78
2019-05-20T10:08:03.114Z,17.77
2019-05-20T10:10:32.535Z,17.75
2019-05-20T10:13:01.976Z,17.59
2019-05-20T10:15:31.366Z,17.51
2019-05-20T10:18:00.723Z,17.48
2019-05-20T10:20:30.143Z,17.49
2019-05-20T10:22:59.534Z,17.47
2019-05-20T10:25:28.883Z,17.45
2019-05-20T10:27:58.276Z,17.39
2019-05-20T10:30:28.446Z,17.37
2019-05-20T10:32:57.833Z,17.38
2019-05-20T10:35:27.181Z,17.39
2019-05-20T10:37:56.574Z,17.48
2019-05-20T10:40:25.925Z,17.60
2019-05-20T10:42:55.308Z,17.79
2019-05-20T10:45:24.674Z,18.02
2019-05-20T10:47:54.070Z,18.22
2019-05-20T10:50:23.433Z,18.35
2019-05-20T10:52:52.819Z,18.44
2019-05-20T10:55:22.279Z,18.52
2019-05-20T10:57:51.665Z,18.52
2019-05-20T11:00:21.490Z,18.50
2019-05-20T11:02:50.851Z,18.46
2019-05-20T11:05:20.241Z,18.47
2019-05-20T11:07:49.791Z,18.42
2019-05-20T11:10:19.649Z,18.42
2019-05-20T11:12:48.974Z,18.43
2019-05-20T11:15:18.446Z,18.53
2019-05-20T11:17:47.823Z,18.63
2019-05-20T11:20:18.041Z,18.54
2019-05-20T11:22:47.449Z,18.45
2019-05-20T11:25:17.159Z,18.40
2019-05-20T11:27:46.549Z,18.31
2019-05-20T11:30:16.652Z,18.21
2019-05-20T11:32:46.032Z,18.22
2019-05-20T11:35:16.548Z,18.23
2019-05-20T11:37:46.928Z,18.21
2019-05-20T11:40:16.713Z,18.28
2019-05-20T11:42:46.092Z,18.48
2019-05-20T11:45:17.227Z,18.50
2019-05-20T11:47:46.600Z,18.50
2019-05-20T11:50:17.726Z,18.46
2019-05-20T11:52:47.115Z,18.42
2019-05-20T11:55:17.164Z,18.43
2019-05-20T11:57:46.560Z,18.47
2019-05-20T12:00:17.445Z,18.44
2019-05-20T12:02:46.813Z,18.42
2019-05-20T12:05:16.531Z,18.37
2019-05-20T12:07:45.911Z,18.31
2019-05-20T12:10:15.627Z,18.32
2019-05-20T12:12:46.196Z,18.40
2019-05-20T12:15:17.561Z,18.58
2019-05-20T12:17:46.919Z,18.73
2019-05-20T12:20:17.022Z,18.71
2019-05-20T12:22:46.414Z,18.72
2019-05-20T12:25:15.943Z,18.64
2019-05-20T12:27:45.301Z,18.60
2019-05-20T12:30:15.755Z,18.58
2019-05-20T12:32:45.119Z,18.60
2019-05-20T12:35:14.738Z,18.60
2019-05-20T12:37:45.814Z,18.65
2019-05-20T12:40:16.073Z,18.79
2019-05-20T12:42:45.441Z,18.71
2019-05-20T12:45:14.928Z,18.67
2019-05-20T12:47:44.318Z,18.71
2019-05-20T12:50:14.510Z,18.69
2019-05-20T12:52:43.871Z,18.60
2019-05-20T12:55:13.979Z,18.50
2019-05-20T12:57:43.333Z,18.46
2019-05-20T13:00:14.358Z,18.44
2019-05-20T13:02:43.747Z,18.41
2019-05-20T13:05:13.774Z,18.37
2019-05-20T13:07:43.728Z,18.35
2019-05-20T13:10:29.106Z,18.34
2019-05-20T13:12:45.646Z,18.26
2019-05-20T13:15:15.670Z,18.21
2019-05-20T13:17:45.615Z,18.18
2019-05-20T13:20:15.333Z,18.16
2019-05-20T13:22:44.711Z,18.17
2019-05-20T13:25:14.464Z,18.16
2019-05-20T13:27:43.849Z,18.14
2019-05-20T13:30:13.957Z,18.13
2019-05-20T13:32:43.321Z,18.09
2019-05-20T13:35:13.540Z,18.03
2019-05-20T13:37:42.903Z,18.00
2019-05-20T13:40:13.664Z,17.88
2019-05-20T13:42:43.017Z,17.86
2019-05-20T13:45:12.831Z,17.90
2019-05-20T13:47:42.280Z,17.89
2019-05-20T13:50:11.907Z,17.92
2019-05-20T13:52:41.299Z,17.96
2019-05-20T13:55:11.466Z,18.01
2019-05-20T13:57:40.907Z,17.99
2019-05-20T14:00:10.828Z,18.01
2019-05-20T14:02:40.198Z,18.03
2019-05-20T14:05:10.418Z,18.09
2019-05-20T14:07:39.833Z,18.19
2019-05-20T14:10:10.551Z,18.27
2019-05-20T14:12:39.928Z,18.31
2019-05-20T14:15:09.854Z,18.34
2019-05-20T14:17:39.212Z,18.29
2019-05-20T14:20:08.944Z,18.28
2019-05-20T14:22:38.319Z,18.27
2019-05-20T14:25:08.731Z,18.23
2019-05-20T14:27:38.137Z,18.26
2019-05-20T14:30:09.674Z,18.24
2019-05-20T14:32:39.048Z,18.22
2019-05-20T14:35:08.609Z,18.25
2019-05-20T14:37:38.006Z,18.22
2019-05-20T14:40:08.012Z,18.17
2019-05-20T14:42:37.396Z,18.14
2019-05-20T14:45:07.591Z,18.08
2019-05-20T14:47:36.971Z,17.97
2019-05-20T14:50:08.486Z,17.94
2019-05-20T14:52:38.056Z,17.91
2019-05-20T14:55:08.724Z,17.84
2019-05-20T14:57:38.166Z,17.88
2019-05-20T15:00:08.478Z,17.87
2019-05-20T15:02:37.899Z,17.86
2019-05-20T15:05:08.364Z,17.82
2019-05-20T15:07:37.827Z,17.78
2019-05-20T15:10:09.327Z,17.72
2019-05-20T15:12:39.758Z,17.69
2019-05-20T15:15:09.710Z,17.66
2019-05-20T15:17:39.082Z,17.66
2019-05-20T15:20:10.160Z,17.67
2019-05-20T15:22:39.658Z,17.70
2019-05-20T15:25:09.775Z,17.72
2019-05-20T15:27:39.296Z,17.73
2019-05-20T15:30:09.215Z,17.72
2019-05-20T15:32:38.684Z,17.69
2019-05-20T15:35:08.620Z,17.66
2019-05-20T15:37:37.989Z,17.63
2019-05-20T15:40:07.725Z,17.59
2019-05-20T15:42:37.100Z,17.55
2019-05-20T15:45:09.941Z,17.54
2019-05-20T15:47:39.426Z,17.54
2019-05-20T15:50:10.354Z,17.54
2019-05-20T15:52:40.202Z,17.51
2019-05-20T15:55:09.556Z,17.52
2019-05-20T15:57:38.934Z,17.53
2019-05-20T16:00:09.697Z,17.52
2019-05-20T16:02:39.251Z,17.50
2019-05-20T16:05:09.360Z,17.46
2019-05-20T16:07:38.763Z,17.44
2019-05-20T16:10:09.550Z,17.43
2019-05-20T16:12:38.936Z,17.40
2019-05-20T16:15:08.944Z,17.33
2019-05-20T16:17:38.328Z,17.32
2019-05-20T16:20:08.514Z,17.33
2019-05-20T16:22:37.879Z,17.32
2019-05-20T16:25:07.878Z,17.33
2019-05-20T16:27:37.445Z,17.32
2019-05-20T16:30:10.252Z,17.36
2019-05-20T16:32:39.722Z,17.42
2019-05-20T16:35:09.302Z,17.49
2019-05-20T16:37:39.162Z,17.59
2019-05-20T16:40:09.813Z,17.59
2019-05-20T16:42:39.502Z,17.55
2019-05-20T16:45:11.836Z,17.50
2019-05-20T16:47:40.900Z,17.44
2019-05-20T16:50:10.724Z,17.40
2019-05-20T16:52:40.097Z,17.40
2019-05-20T16:55:09.537Z,17.33
2019-05-20T16:57:39.188Z,17.31
2019-05-20T17:00:29.823Z,17.29
2019-05-20T17:02:42.901Z,17.24
2019-05-20T17:05:13.546Z,17.18
2019-05-20T17:07:42.922Z,17.13
2019-05-20T17:10:12.549Z,17.08
2019-05-20T17:12:41.926Z,17.04
2019-05-20T17:15:11.661Z,16.99
2019-05-20T17:17:41.036Z,16.95
2019-05-20T17:20:10.855Z,16.90
2019-05-20T17:22:40.226Z,16.85
2019-05-20T17:25:09.974Z,16.80
2019-05-20T17:27:39.332Z,16.76
2019-05-20T17:30:09.832Z,16.75
2019-05-20T17:32:39.271Z,16.73
2019-05-20T17:35:09.162Z,16.72
2019-05-20T17:37:38.631Z,16.68
2019-05-20T17:40:10.347Z,16.68
2019-05-20T17:42:39.798Z,16.68
2019-05-20T17:45:09.990Z,16.66
2019-05-20T17:47:39.506Z,16.64
2019-05-20T17:50:09.505Z,16.63
2019-05-20T17:52:39.946Z,16.62
2019-05-20T17:55:09.477Z,16.60
2019-05-20T17:57:38.974Z,16.56
2019-05-20T18:00:11.641Z,16.52
2019-05-20T18:02:41.164Z,16.51
2019-05-20T18:05:10.541Z,16.49
2019-05-20T18:07:39.914Z,16.47
2019-05-20T18:10:10.192Z,16.43
2019-05-20T18:12:39.575Z,16.44
2019-05-20T18:15:09.331Z,16.40
2019-05-20T18:17:38.697Z,16.38
2019-05-20T18:20:08.308Z,16.38
2019-05-20T18:22:37.666Z,16.36
2019-05-20T18:25:08.100Z,16.33
2019-05-20T18:27:38.449Z,16.28
2019-05-20T18:30:09.228Z,16.25
2019-05-20T18:32:38.853Z,16.23
2019-05-20T18:35:08.876Z,16.20
2019-05-20T18:37:38.250Z,16.18
2019-05-20T18:40:13.849Z,16.16
2019-05-20T18:42:39.964Z,16.13
2019-05-20T18:45:10.930Z,16.11
2019-05-20T18:47:40.366Z,16.09
2019-05-20T18:50:10.194Z,16.08
2019-05-20T18:52:39.555Z,16.06
2019-05-20T18:55:09.075Z,16.04
2019-05-20T18:57:38.447Z,16.01
2019-05-20T19:00:10.210Z,15.98
2019-05-20T19:02:40.544Z,15.96
2019-05-20T19:05:10.626Z,15.94
2019-05-20T19:07:40.128Z,15.91
2019-05-20T19:10:11.088Z,15.90
2019-05-20T19:12:40.453Z,15.90
2019-05-20T19:15:10.626Z,15.89
2019-05-20T19:17:40.151Z,15.86
2019-05-20T19:20:09.741Z,15.86
2019-05-20T19:22:39.106Z,15.82
2019-05-20T19:25:08.559Z,15.78
2019-05-20T19:27:37.936Z,15.77
2019-05-20T19:30:08.150Z,15.74
2019-05-20T19:32:37.621Z,15.72
2019-05-20T19:35:08.888Z,15.68
2019-05-20T19:37:38.459Z,15.66
2019-05-20T19:40:09.007Z,15.64
2019-05-20T19:42:40.257Z,15.64
2019-05-20T19:45:10.376Z,15.63
2019-05-20T19:47:39.752Z,15.60
2019-05-20T19:50:09.646Z,15.56
2019-05-20T19:52:39.085Z,15.53
2019-05-20T19:55:08.551Z,15.51
2019-05-20T19:57:37.900Z,15.51
2019-05-20T20:00:08.405Z,15.50
2019-05-20T20:02:37.876Z,15.47
2019-05-20T20:05:10.543Z,15.47
2019-05-20T20:07:40.195Z,15.46
2019-05-20T20:10:11.057Z,15.44
2019-05-20T20:12:40.448Z,15.41
2019-05-20T20:15:15.625Z,15.39
2019-05-20T20:17:44.987Z,15.36
2019-05-20T20:20:14.563Z,15.33
2019-05-20T20:22:43.967Z,15.29
2019-05-20T20:25:13.345Z,15.23
2019-05-20T20:27:42.974Z,15.17
2019-05-20T20:30:12.426Z,15.13
2019-05-20T20:32:41.822Z,15.12
2019-05-20T20:35:11.376Z,15.10
2019-05-20T20:37:40.749Z,15.07
2019-05-20T20:40:10.587Z,15.07
2019-05-20T20:42:39.970Z,15.04
2019-05-20T20:45:09.799Z,15.04
2019-05-20T20:47:42.145Z,15.02
2019-05-20T20:50:11.094Z,15.02
2019-05-20T20:52:40.747Z,15.03
2019-05-20T20:55:10.464Z,15.04
2019-05-20T20:57:39.834Z,15.02
2019-05-20T21:00:11.322Z,14.99
2019-05-20T21:02:52.979Z,14.93
2019-05-20T21:05:12.575Z,14.91
2019-05-20T21:07:41.939Z,14.90
2019-05-20T21:10:11.841Z,14.86
2019-05-20T21:12:41.251Z,14.84
2019-05-20T21:15:10.951Z,14.80
2019-05-20T21:17:40.354Z,14.77
2019-05-20T21:20:10.189Z,14.75
2019-05-20T21:22:39.556Z,14.72
2019-05-20T21:25:09.177Z,14.70
2019-05-20T21:27:38.545Z,14.69
2019-05-20T21:30:09.719Z,14.66
2019-05-20T21:32:39.090Z,14.61
2019-05-20T21:35:08.642Z,14.57
2019-05-20T21:37:38.300Z,14.55
2019-05-20T21:40:08.141Z,14.52
2019-05-20T21:42:37.514Z,14.55
2019-05-20T21:45:08.522Z,14.56
2019-05-20T21:47:38.747Z,14.59
2019-05-20T21:50:08.534Z,14.62
2019-05-20T21:52:37.906Z,14.64
2019-05-20T21:55:07.441Z,14.64
2019-05-20T21:57:36.845Z,14.64
2019-05-20T22:00:08.054Z,14.65
2019-05-20T22:02:39.213Z,14.64
2019-05-20T22:05:09.031Z,14.63
2019-05-20T22:07:38.584Z,14.61
2019-05-20T22:10:09.059Z,14.60
2019-05-20T22:12:38.419Z,14.60
2019-05-20T22:15:08.405Z,14.59
2019-05-20T22:17:37.763Z,14.57
2019-05-20T22:20:07.398Z,14.56
2019-05-20T22:22:54.574Z,14.54
2019-05-20T22:25:23.963Z,14.50
2019-05-20T22:27:53.330Z,14.40
2019-05-20T22:30:22.697Z,14.30
2019-05-20T22:32:52.062Z,14.22
2019-05-20T22:35:21.470Z,14.16
2019-05-20T22:37:51.426Z,14.09
2019-05-20T22:40:20.793Z,14.05
2019-05-20T22:42:50.198Z,14.02
2019-05-20T22:45:19.581Z,13.99
2019-05-20T22:47:48.951Z,13.97
2019-05-20T22:50:18.337Z,13.93
2019-05-20T22:52:47.723Z,13.90
2019-05-20T22:55:17.079Z,13.88
2019-05-20T22:57:46.462Z,13.87
2019-05-20T23:00:16.152Z,13.84
2019-05-20T23:02:45.534Z,13.81
2019-05-20T23:05:15.133Z,13.80
2019-05-20T23:07:44.522Z,13.77
2019-05-20T23:10:14.185Z,13.75
2019-05-20T23:12:43.546Z,13.73
2019-05-20T23:15:13.580Z,13.70
2019-05-20T23:17:42.955Z,13.68
2019-05-20T23:20:12.683Z,13.64
2019-05-20T23:22:42.073Z,13.62
2019-05-20T23:25:12.081Z,13.56
2019-05-20T23:27:41.456Z,13.53
2019-05-20T23:30:11.269Z,13.48
2019-05-20T23:32:40.688Z,13.45
2019-05-20T23:35:10.311Z,13.43
2019-05-20T23:37:39.682Z,13.39
2019-05-20T23:40:10.684Z,13.33
2019-05-20T23:42:40.082Z,13.26
2019-05-20T23:45:10.987Z,13.22
2019-05-20T23:47:40.424Z,13.17
2019-05-20T23:50:09.804Z,13.14
2019-05-20T23:52:39.207Z,13.13
2019-05-20T23:55:09.140Z,13.13
2019-05-20T23:57:38.531Z,13.13
